Uppsala, Sverige

11:40 AM CEST on September 18, 2014 (GMT +0200)
Graneberg | Change Station
CLOSE
Current Station
Personal Weather Stations
Location: Uppsala, Uppsala
Elevation: 148 ft
Nearby Weather Stations

Elev 148 ft 59.79 °N, 17.63 °E | Updated 10 minutes ago

Partly Cloudy
Växlande molnighet
54.9 °F
Feels Like 54.9 °F
N
0.0
Vind Växlande Vind from Nordlig
Gusts 0.0 miles/tim

Idag
High -- | Low -- °F
--% Chance of Precip.
Yesterday
High -- | Low -- °F
Precip. -- tum
6:24 AM 7:02 PM
Fjärde kvarteret, 28% visible
Lufttryck 30.27 tum
Sikt 6.2 miles
Molnigt Few 200 ft
Daggpunkt 51 °F
Luftfuktighet 87%
Rainfall 0.00 tum
Snow Depth Not available.
UV 3 out of 12
Pollen Not available.
Air Quality Not available.
Flu Activity Not available.
METAR ESSA 180920Z VRB02KT 9999 FEW002 13/13 Q1025 BECMG CAVOK

More Conditions Fewer Conditions

Lufttryck 30.27 tum
Sikt 6.2 miles
Molnigt Few 200 ft
Daggpunkt 51 °F
Luftfuktighet 87%
Rainfall 0.00 tum
Snow Depth Not available.
UV 3 out of 12
Pollen Not available.
Air Quality Not available.
Flu Activity Not available.
METAR ESSA 180920Z VRB02KT 9999 FEW002 13/13 Q1025 BECMG CAVOK

More Conditions Fewer Conditions

10-Day Weather Forecast

Almanac

Astronomi

Sep. 18, 2014 Rise Set
Actual Time 6:24 AM CEST 7:02 PM CEST
Civil Twilight 5:42 AM CEST 7:43 PM CEST
Nautical Twilight 4:50 AM CEST 8:34 PM CEST
Astronomical Twilight 3:54 AM CEST 9:30 PM CEST
Månen Ingen månuppgång 4:38 PM CEST
Length Of Visible Light 14h 01m
Dagens längd
12h 38m
Tomorrow will be 5m 22s shorter.
Fjärde kvarteret, 28% of the Moon is Illuminated
Idag
Fjärde kvarteret
Sep 24
New
Oct 1
Första kvarteret
Oct 8
Fullmåne
Oct 15
Sista kvarteret

Yesterday's Extremes

Country Highs Country Lows

Community

WunderPhotos

Upload Photos

1,754,312 photos uploaded!

Nearby

Snödjup

Not available.

Earthquake Activity

Stad Distance Mag. Time & Date
No recent earthquake activity has been reported nearby.
Minimum magnitude displayed is 2.5.

Coastal Water Temperatures

Plats Temperatur
No Stations Reporting

Nearby Weather Stations